createdAt,value
2023-02-20T00:00:11.634Z,101380.72
2023-02-20T00:03:17.944Z,101380.44
2023-02-20T00:06:20.704Z,101365.22
2023-02-20T00:09:23.466Z,101361.72
2023-02-20T00:12:26.194Z,101347.56
2023-02-20T00:15:29.016Z,101355.81
2023-02-20T00:18:33.076Z,101348.78
2023-02-20T00:21:35.762Z,101350.66
2023-02-20T00:24:38.412Z,101340.06
2023-02-20T00:27:41.081Z,101343.66
2023-02-20T00:30:43.774Z,101348.91
2023-02-20T00:33:48.069Z,101343.72
2023-02-20T00:36:50.728Z,101338.50
2023-02-20T00:39:53.960Z,101339.44
2023-02-20T00:42:56.629Z,101351.16
2023-02-20T00:45:59.349Z,101347.53
2023-02-20T00:49:03.648Z,101353.06
2023-02-20T00:52:06.306Z,101338.72
2023-02-20T00:55:09.435Z,101340.53
2023-02-20T00:58:12.148Z,101342.34
2023-02-20T01:01:15.088Z,101333.72
2023-02-20T01:04:19.753Z,101342.72
2023-02-20T01:07:22.405Z,101354.44
2023-02-20T01:10:25.495Z,101350.16
2023-02-20T01:13:28.377Z,101342.28
2023-02-20T01:16:32.012Z,101329.03
2023-02-20T01:19:36.381Z,101335.38
2023-02-20T01:22:39.179Z,101340.91
2023-02-20T01:25:42.008Z,101346.41
2023-02-20T01:28:45.413Z,101334.84
2023-02-20T01:31:49.466Z,101355.59
2023-02-20T01:34:53.581Z,101355.63
2023-02-20T01:37:56.271Z,101356.56
2023-02-20T01:40:58.969Z,101353.81
2023-02-20T01:44:01.635Z,101349.22
2023-02-20T01:47:07.691Z,101364.38
2023-02-20T01:50:13.384Z,101346.31
2023-02-20T01:53:20.805Z,101348.19
2023-02-20T01:56:23.629Z,101334.88
2023-02-20T01:59:29.715Z,101325.75
2023-02-20T02:02:35.737Z,101289.25
2023-02-20T02:05:42.941Z,101322.22
2023-02-20T02:08:46.861Z,101320.47
2023-02-20T02:11:51.029Z,101308.81
2023-02-20T02:14:53.715Z,101315.22
2023-02-20T02:18:12.025Z,101274.28
2023-02-20T02:21:46.704Z,101305.56
2023-02-20T02:25:34.040Z,101302.94
2023-02-20T02:29:01.605Z,101307.50
2023-02-20T02:32:45.855Z,101302.22
2023-02-20T02:36:29.627Z,101302.25
2023-02-20T02:39:42.663Z,101288.88
2023-02-20T02:42:53.760Z,101280.91
2023-02-20T02:45:58.435Z,101286.34
2023-02-20T02:49:08.454Z,101292.72
2023-02-20T02:52:13.408Z,101284.75
2023-02-20T02:55:18.894Z,101291.97
2023-02-20T02:58:21.924Z,101291.16
2023-02-20T03:01:25.327Z,101300.25
2023-02-20T03:04:31.042Z,101303.97
2023-02-20T03:07:41.047Z,101288.06
2023-02-20T03:10:45.369Z,101298.75
2023-02-20T03:14:10.987Z,101293.44
2023-02-20T03:17:18.825Z,101298.84
2023-02-20T03:20:23.672Z,101314.09
2023-02-20T03:23:32.410Z,101301.63
2023-02-20T03:26:38.565Z,101293.63
2023-02-20T03:29:41.281Z,101295.50
2023-02-20T03:33:05.511Z,101291.94
2023-02-20T03:36:31.051Z,101283.03
2023-02-20T03:39:57.319Z,101289.31
2023-02-20T03:43:23.135Z,101277.66
2023-02-20T03:46:27.692Z,101283.94
2023-02-20T03:49:36.706Z,101295.66
2023-02-20T03:52:39.626Z,101296.56
2023-02-20T03:55:43.996Z,101310.00
2023-02-20T03:58:50.022Z,101297.53
2023-02-20T04:01:57.910Z,101315.47
2023-02-20T04:05:05.687Z,101310.16
2023-02-20T04:08:12.047Z,101312.84
2023-02-20T04:11:22.653Z,101310.19
2023-02-20T04:14:28.819Z,101319.19
2023-02-20T04:17:33.638Z,101313.91
2023-02-20T04:20:36.610Z,101324.63
2023-02-20T04:23:44.029Z,101327.38
2023-02-20T04:26:48.406Z,101333.66
2023-02-20T04:29:51.395Z,101352.47
2023-02-20T04:32:54.150Z,101343.50
2023-02-20T04:35:58.439Z,101339.94
2023-02-20T04:39:02.017Z,101346.22
2023-02-20T04:42:06.444Z,101335.47
2023-02-20T04:45:09.357Z,101326.56
2023-02-20T04:48:12.080Z,101337.31
2023-02-20T04:51:14.775Z,101324.84
2023-02-20T04:54:17.762Z,101326.59
2023-02-20T04:57:22.404Z,101323.94
2023-02-20T05:00:27.401Z,101324.84
2023-02-20T05:03:30.114Z,101319.47
2023-02-20T05:06:32.829Z,101333.78
2023-02-20T05:09:35.946Z,101330.22
2023-02-20T05:12:40.010Z,101326.63
2023-02-20T05:15:42.745Z,101317.72
2023-02-20T05:18:45.691Z,101332.91
2023-02-20T05:22:06.436Z,101334.72
2023-02-20T05:25:09.960Z,101325.78
2023-02-20T05:28:14.036Z,101326.72
2023-02-20T05:31:17.882Z,101322.25
2023-02-20T05:34:22.692Z,101323.19
2023-02-20T05:37:27.067Z,101312.50
2023-02-20T05:40:29.780Z,101315.19
2023-02-20T05:43:33.822Z,101319.72
2023-02-20T05:46:40.788Z,101324.22
2023-02-20T05:49:43.555Z,101317.13
2023-02-20T05:52:46.918Z,101320.69
2023-02-20T05:55:49.674Z,101311.78
2023-02-20T05:58:53.749Z,101311.78
2023-02-20T06:01:57.725Z,101309.13
2023-02-20T06:05:00.537Z,101311.81
2023-02-20T06:08:04.200Z,101310.06
2023-02-20T06:11:06.944Z,101313.66
2023-02-20T06:14:11.049Z,101322.59
2023-02-20T06:17:13.750Z,101327.09
2023-02-20T06:20:16.885Z,101321.72
2023-02-20T06:23:19.652Z,101316.41
2023-02-20T06:26:24.387Z,101323.56
2023-02-20T06:29:29.057Z,101328.91
2023-02-20T06:32:31.744Z,101329.81
2023-02-20T06:35:34.491Z,101323.53
2023-02-20T06:38:37.630Z,101321.75
2023-02-20T06:41:40.876Z,101316.38
2023-02-20T06:44:44.898Z,101321.75
2023-02-20T06:47:47.653Z,101316.34
2023-02-20T06:50:55.224Z,101321.69
2023-02-20T06:53:58.674Z,101304.69
2023-02-20T06:57:02.081Z,101320.72
2023-02-20T07:00:08.207Z,101324.31
2023-02-20T07:03:10.929Z,101328.75
2023-02-20T07:06:14.294Z,101326.91
2023-02-20T07:09:17.533Z,101322.41
2023-02-20T07:12:20.410Z,101319.63
2023-02-20T07:15:24.476Z,101315.94
2023-02-20T07:18:27.721Z,101311.41
2023-02-20T07:21:30.395Z,101305.03
2023-02-20T07:24:33.082Z,101305.88
2023-02-20T07:27:35.893Z,101296.88
2023-02-20T07:30:39.924Z,101311.13
2023-02-20T07:33:43.655Z,101315.53
2023-02-20T07:36:46.373Z,101326.16
2023-02-20T07:39:49.093Z,101317.13
2023-02-20T07:42:51.791Z,101296.31
2023-02-20T07:45:55.887Z,101307.88
2023-02-20T07:48:58.618Z,101293.38
2023-02-20T07:52:02.104Z,101304.91
2023-02-20T07:55:05.025Z,101299.41
2023-02-20T07:58:07.732Z,101285.84
2023-02-20T08:01:11.914Z,101287.56
2023-02-20T08:04:14.680Z,101287.56
2023-02-20T08:07:17.368Z,101280.28
2023-02-20T08:10:21.607Z,101277.47
2023-02-20T08:13:24.463Z,101278.25
2023-02-20T08:16:28.548Z,101269.94
2023-02-20T08:19:31.319Z,101271.44
2023-02-20T08:22:41.271Z,101263.09
2023-02-20T08:25:44.452Z,101264.47
2023-02-20T08:28:47.966Z,101255.97
2023-02-20T08:31:52.073Z,101262.75
2023-02-20T08:34:54.746Z,101248.75
2023-02-20T08:37:57.489Z,101250.16
2023-02-20T08:41:00.410Z,101234.50
2023-02-20T08:44:03.602Z,101230.69
2023-02-20T08:47:07.643Z,101228.72
2023-02-20T08:50:10.748Z,101238.47
2023-02-20T08:53:13.580Z,101224.97
2023-02-20T08:56:19.804Z,101218.63
2023-02-20T08:59:22.473Z,101210.50
2023-02-20T09:02:29.208Z,101214.84
2023-02-20T09:05:32.295Z,101216.47
2023-02-20T09:08:34.993Z,101206.56
2023-02-20T09:11:37.782Z,101210.88
2023-02-20T09:14:40.859Z,101200.06
2023-02-20T09:17:46.079Z,101201.59
2023-02-20T09:20:49.077Z,101211.09
2023-02-20T09:23:51.770Z,101200.97
2023-02-20T09:26:56.382Z,101191.56
2023-02-20T09:29:59.810Z,101196.78
2023-02-20T09:33:03.855Z,101196.59
2023-02-20T09:36:07.689Z,101194.66
2023-02-20T09:39:10.509Z,101191.75
2023-02-20T09:42:27.694Z,101174.38
2023-02-20T09:45:34.510Z,101169.53
2023-02-20T09:48:50.958Z,101175.59
2023-02-20T09:51:57.246Z,101152.97
2023-02-20T09:55:03.922Z,101154.31
2023-02-20T09:58:07.802Z,101158.72
2023-02-20T10:01:14.586Z,101150.34
2023-02-20T10:04:22.696Z,101161.59
2023-02-20T10:07:28.299Z,101154.78
2023-02-20T10:10:38.988Z,101150.78
2023-02-20T10:13:56.073Z,101147.88
2023-02-20T10:17:09.028Z,101141.19
2023-02-20T10:20:21.315Z,101138.19
2023-02-20T10:23:34.832Z,101124.25
2023-02-20T10:26:43.515Z,101133.09
2023-02-20T10:29:47.076Z,101126.66
2023-02-20T10:32:55.977Z,101123.72
2023-02-20T10:36:05.347Z,101107.34
2023-02-20T10:39:10.596Z,101111.78
2023-02-20T10:42:21.824Z,101102.72
2023-02-20T10:45:33.384Z,101097.34
2023-02-20T10:48:36.870Z,101094.44
2023-02-20T10:51:46.754Z,101088.78
2023-02-20T10:54:56.793Z,101085.88
2023-02-20T10:58:05.716Z,101082.03
2023-02-20T11:01:11.974Z,101076.22
2023-02-20T11:04:19.085Z,101067.78
2023-02-20T11:07:23.908Z,101059.59
2023-02-20T11:10:27.100Z,101050.28
2023-02-20T11:13:29.848Z,101046.25
2023-02-20T11:16:37.986Z,101033.16
2023-02-20T11:19:43.922Z,101034.63
2023-02-20T11:22:50.232Z,101026.00
2023-02-20T11:25:53.115Z,101028.31
2023-02-20T11:28:59.255Z,101026.09
2023-02-20T11:32:23.320Z,101026.59
2023-02-20T11:35:33.978Z,101021.69
2023-02-20T11:38:38.772Z,101018.56
2023-02-20T11:41:41.519Z,101010.16
2023-02-20T11:44:44.353Z,101010.00
2023-02-20T11:47:47.072Z,101007.19
2023-02-20T11:50:51.249Z,101006.22
2023-02-20T11:54:08.021Z,100991.69
2023-02-20T11:57:23.618Z,100977.16
2023-02-20T12:00:28.112Z,100978.88
2023-02-20T12:03:32.920Z,100967.66
2023-02-20T12:06:42.787Z,100968.31
2023-02-20T12:09:50.067Z,100948.13
2023-02-20T12:12:53.804Z,100962.53
2023-02-20T12:16:07.847Z,100946.13
2023-02-20T12:19:18.350Z,100931.38
2023-02-20T12:22:32.412Z,100928.44
2023-02-20T12:25:48.715Z,100908.50
2023-02-20T12:29:04.660Z,100919.78
2023-02-20T12:32:20.472Z,100909.59
2023-02-20T12:35:31.708Z,100898.06
2023-02-20T12:38:48.415Z,100915.63
2023-02-20T12:42:06.299Z,100914.53
2023-02-20T12:45:31.682Z,100905.19
2023-02-20T12:48:50.218Z,100913.16
2023-02-20T12:51:57.170Z,100896.13
2023-02-20T12:55:07.993Z,100897.31
2023-02-20T12:58:23.120Z,100881.22
2023-02-20T13:01:38.879Z,100895.19
2023-02-20T13:04:48.111Z,100889.59
2023-02-20T13:07:54.119Z,100886.59
2023-02-20T13:10:59.490Z,100881.91
2023-02-20T13:14:10.607Z,100883.56
2023-02-20T13:17:26.348Z,100872.66
2023-02-20T13:20:35.251Z,100870.91
2023-02-20T13:23:41.550Z,100865.56
2023-02-20T13:26:52.196Z,100841.63
2023-02-20T13:30:01.027Z,100845.84
2023-02-20T13:33:14.020Z,100841.41
2023-02-20T13:36:44.486Z,100842.25
2023-02-20T13:39:47.209Z,100841.28
2023-02-20T13:43:28.234Z,100829.69
2023-02-20T13:47:00.310Z,100825.28
2023-02-20T13:50:04.567Z,100799.88
2023-02-20T13:53:07.418Z,100809.97
2023-02-20T13:56:16.523Z,100794.13
2023-02-20T13:59:21.003Z,100800.28
2023-02-20T14:02:30.548Z,100790.53
2023-02-20T14:05:33.701Z,100784.19
2023-02-20T14:08:37.657Z,100794.19
2023-02-20T14:11:41.363Z,100780.03
2023-02-20T14:14:46.795Z,100789.47
2023-02-20T14:17:52.289Z,100787.81
2023-02-20T14:21:00.137Z,100764.34
2023-02-20T14:24:17.657Z,100756.16
2023-02-20T14:27:27.228Z,100753.50
2023-02-20T14:30:31.808Z,100748.94
2023-02-20T14:33:36.187Z,100742.56
2023-02-20T14:36:51.952Z,100730.72
2023-02-20T14:40:02.028Z,100717.09
2023-02-20T14:43:10.828Z,100707.03
2023-02-20T14:46:22.093Z,100703.97
2023-02-20T14:49:29.493Z,100718.75
2023-02-20T14:52:32.157Z,100703.16
2023-02-20T14:55:34.838Z,100700.44
2023-02-20T14:58:39.214Z,100697.81
2023-02-20T15:01:42.300Z,100690.84
2023-02-20T15:04:50.531Z,100691.16
2023-02-20T15:07:53.319Z,100688.66
2023-02-20T15:10:57.885Z,100691.63
2023-02-20T15:14:02.321Z,100690.09
2023-02-20T15:17:10.463Z,100688.56
2023-02-20T15:20:20.936Z,100702.34
2023-02-20T15:23:28.791Z,100695.34
2023-02-20T15:26:33.965Z,100696.41
2023-02-20T15:29:36.986Z,100690.97
2023-02-20T15:32:41.987Z,100686.47
2023-02-20T15:35:46.059Z,100679.09
2023-02-20T15:38:48.806Z,100673.59
2023-02-20T15:45:01.042Z,100671.81
2023-02-20T15:48:04.310Z,100659.09
2023-02-20T15:51:09.300Z,100656.38
2023-02-20T15:54:17.480Z,100650.38
2023-02-20T15:57:20.700Z,100656.69
2023-02-20T16:00:26.132Z,100659.56
2023-02-20T16:03:33.961Z,100667.91
2023-02-20T16:06:43.553Z,100632.06
2023-02-20T16:09:46.720Z,100674.22
2023-02-20T16:12:53.631Z,100676.44
2023-02-20T16:15:56.598Z,100670.94
2023-02-20T16:18:59.380Z,100678.84
2023-02-20T16:22:03.813Z,100683.13
2023-02-20T16:25:07.450Z,100680.94
2023-02-20T16:28:10.394Z,100686.25
2023-02-20T16:31:13.732Z,100685.84
2023-02-20T16:34:21.609Z,100689.69
2023-02-20T16:37:26.946Z,100685.75
2023-02-20T16:40:29.710Z,100693.63
2023-02-20T16:43:32.503Z,100690.44
2023-02-20T16:46:38.564Z,100706.00
2023-02-20T16:49:41.476Z,100702.78
2023-02-20T16:52:45.601Z,100703.91
2023-02-20T16:55:49.301Z,100713.16
2023-02-20T16:58:52.064Z,100720.63
2023-02-20T17:01:54.790Z,100704.84
2023-02-20T17:04:58.222Z,100713.25
2023-02-20T17:08:03.668Z,100696.53
2023-02-20T17:11:06.599Z,100707.31
2023-02-20T17:14:09.439Z,100711.19
2023-02-20T17:17:12.200Z,100717.06
2023-02-20T17:20:16.761Z,100719.34
2023-02-20T17:23:21.013Z,100709.06
2023-02-20T17:26:26.703Z,100717.75
2023-02-20T17:29:29.490Z,100715.34
2023-02-20T17:32:33.379Z,100723.59
2023-02-20T17:35:36.210Z,100719.47
2023-02-20T17:38:42.864Z,100715.34
2023-02-20T17:41:45.744Z,100730.00
2023-02-20T17:44:50.020Z,100732.94
2023-02-20T17:47:52.767Z,100733.00
2023-02-20T17:50:55.445Z,100732.50
2023-02-20T17:53:59.654Z,100728.38
2023-02-20T17:57:03.256Z,100722.38
2023-02-20T18:00:07.982Z,100734.22
2023-02-20T18:03:10.726Z,100728.06
2023-02-20T18:06:13.726Z,100738.09
2023-02-20T18:09:19.062Z,100745.41
2023-02-20T18:12:22.690Z,100749.84
2023-02-20T18:15:25.387Z,100747.25
2023-02-20T18:18:28.205Z,100753.75
2023-02-20T18:21:32.363Z,100752.03
2023-02-20T18:24:36.522Z,100755.66
2023-02-20T18:27:39.734Z,100756.59
2023-02-20T18:30:42.775Z,100749.56
2023-02-20T18:33:45.582Z,100750.47
2023-02-20T18:36:48.386Z,100749.56
2023-02-20T18:39:52.434Z,100760.56
2023-02-20T18:42:55.383Z,100756.06
2023-02-20T18:45:58.254Z,100747.97
2023-02-20T18:49:02.236Z,100738.34
2023-02-20T18:52:05.744Z,100749.13
2023-02-20T18:55:10.014Z,100744.72
2023-02-20T18:58:12.961Z,100755.63
2023-02-20T19:01:19.405Z,100751.19
2023-02-20T19:04:23.000Z,100744.00
2023-02-20T19:07:25.774Z,100751.28
2023-02-20T19:10:29.878Z,100755.00
2023-02-20T19:13:32.546Z,100744.34
2023-02-20T19:16:35.405Z,100742.44
2023-02-20T19:19:38.203Z,100743.38
2023-02-20T19:22:41.732Z,100749.75
2023-02-20T19:25:45.743Z,100756.13
2023-02-20T19:28:49.714Z,100753.41
2023-02-20T19:31:52.738Z,100758.81
2023-02-20T19:34:55.491Z,100760.66
2023-02-20T19:37:58.234Z,100744.81
2023-02-20T19:41:03.230Z,100761.72
2023-02-20T19:44:06.649Z,100763.53
2023-02-20T19:47:09.871Z,100757.25
2023-02-20T19:50:12.996Z,100767.19
2023-02-20T19:53:16.423Z,100760.16
2023-02-20T19:56:20.560Z,100769.28
2023-02-20T19:59:23.679Z,100762.25
2023-02-20T20:02:26.399Z,100762.16
2023-02-20T20:05:29.431Z,100765.81
2023-02-20T20:08:32.117Z,100764.91
2023-02-20T20:11:36.279Z,100769.28
2023-02-20T20:14:38.988Z,100763.81
2023-02-20T20:17:41.814Z,100767.44
2023-02-20T20:20:44.703Z,100763.63
2023-02-20T20:23:47.933Z,100770.91
2023-02-20T20:26:51.997Z,100763.53
2023-02-20T20:29:55.706Z,100775.31
2023-02-20T20:32:59.125Z,100767.25
2023-02-20T20:36:01.827Z,100770.16
2023-02-20T20:39:05.372Z,100779.31
2023-02-20T20:42:09.381Z,100770.34
2023-02-20T20:45:14.814Z,100765.88
2023-02-20T20:48:17.529Z,100760.47
2023-02-20T20:51:20.453Z,100768.78
2023-02-20T20:54:23.140Z,100766.13
2023-02-20T20:57:29.227Z,100764.31
2023-02-20T21:00:33.616Z,100757.81
2023-02-20T21:03:36.360Z,100761.66
2023-02-20T21:06:39.073Z,100764.56
2023-02-20T21:09:42.782Z,100757.34
2023-02-20T21:12:47.398Z,100752.84
2023-02-20T21:15:50.126Z,100752.97
2023-02-20T21:18:52.901Z,100754.00
2023-02-20T21:21:55.707Z,100748.03
2023-02-20T21:24:58.443Z,100751.47
2023-02-20T21:28:02.679Z,100741.88
2023-02-20T21:31:05.940Z,100744.59
2023-02-20T21:34:09.164Z,100749.06
2023-02-20T21:37:12.047Z,100743.94
2023-02-20T21:40:19.516Z,100737.03
2023-02-20T21:43:37.624Z,100754.16
2023-02-20T21:46:40.401Z,100748.00
2023-02-20T21:49:46.128Z,100751.47
2023-02-20T21:52:49.764Z,100750.91
2023-02-20T21:55:53.035Z,100744.94
2023-02-20T21:59:03.496Z,100762.84
2023-02-20T22:02:06.900Z,100760.38
2023-02-20T22:05:09.823Z,100742.50
2023-02-20T22:08:29.862Z,100750.59
2023-02-20T22:11:50.626Z,100750.59
2023-02-20T22:15:12.031Z,100747.84
2023-02-20T22:18:32.244Z,100752.44
2023-02-20T22:21:58.026Z,100751.72
2023-02-20T22:25:19.211Z,100761.63
2023-02-20T22:28:39.605Z,100741.38
2023-02-20T22:32:01.297Z,100753.03
2023-02-20T22:35:21.832Z,100767.41
2023-02-20T22:38:41.923Z,100761.97
2023-02-20T22:42:02.679Z,100755.91
2023-02-20T22:45:23.657Z,100769.53
2023-02-20T22:48:45.155Z,100752.63
2023-02-20T22:52:06.295Z,100757.22
2023-02-20T22:55:26.769Z,100760.00
2023-02-20T22:58:47.056Z,100752.84
2023-02-20T23:02:07.371Z,100749.44
2023-02-20T23:05:29.321Z,100752.34
2023-02-20T23:08:49.524Z,100757.09
2023-02-20T23:12:09.715Z,100765.38
2023-02-20T23:15:30.107Z,100767.25
2023-02-20T23:18:50.444Z,100769.22
2023-02-20T23:22:11.806Z,100776.63
2023-02-20T23:25:32.099Z,100776.72
2023-02-20T23:28:52.679Z,100775.09
2023-02-20T23:32:13.072Z,100775.41
2023-02-20T23:35:35.453Z,100757.88
2023-02-20T23:38:56.918Z,100774.13
2023-02-20T23:42:17.894Z,100783.22
2023-02-20T23:45:38.048Z,100778.13
2023-02-20T23:48:58.175Z,100771.94
2023-02-20T23:52:18.221Z,100774.84
2023-02-20T23:55:39.721Z,100774.09
2023-02-20T23:58:59.948Z,100768.81
